Time;durP1;ratioP1;P1;durP2;ratioP2;P2;SDS_P1;SDS_P2;PMS_P1;PMS_P2;Temp;Humidity;BMP_temperature;BMP_pressure;BME280_temperature;BME280_humidity;BME280_pressure;Samples;Min_cycle;Max_cycle;Signal;HPM_P1;HPM_P2
2021/06/23 00:00:50;;;;;;;7.60;4.78;;;22.60;99.90;;;;;;4172469;28;20029;-59
2021/06/23 00:02:51;;;;;;;6.72;5.28;;;22.50;99.90;;;;;;4172715;28;20439;-61
2021/06/23 00:04:52;;;;;;;11.55;5.68;;;22.50;99.90;;;;;;4172692;28;20079;-60
2021/06/23 00:06:53;;;;;;;5.38;4.63;;;22.50;99.90;;;;;;4172491;28;20102;-60
2021/06/23 00:08:54;;;;;;;7.50;5.20;;;22.50;99.90;;;;;;4172465;28;20052;-60
2021/06/23 00:10:55;;;;;;;8.90;5.28;;;22.50;99.90;;;;;;4171762;28;20029;-60
2021/06/23 00:13:04;;;;;;;9.45;5.05;;;22.50;99.90;;;;;;4172523;28;20862;-60
2021/06/23 00:15:07;;;;;;;6.22;5.63;;;22.40;99.90;;;;;;4171476;28;20025;-60
2021/06/23 00:17:08;;;;;;;9.25;5.88;;;22.40;99.90;;;;;;4172965;28;20126;-61
2021/06/23 00:19:09;;;;;;;7.20;4.90;;;22.40;99.90;;;;;;4171088;28;20025;-60
2021/06/23 00:21:10;;;;;;;9.18;5.68;;;22.30;99.90;;;;;;4173203;28;20040;-60
2021/06/23 00:23:11;;;;;;;6.35;5.45;;;22.30;99.90;;;;;;4171696;28;20090;-60
2021/06/23 00:25:13;;;;;;;7.40;5.57;;;22.30;99.90;;;;;;4173140;28;20033;-60
2021/06/23 00:27:14;;;;;;;7.78;5.03;;;22.40;99.90;;;;;;4171613;28;20033;-60
2021/06/23 00:29:15;;;;;;;9.55;6.13;;;22.30;99.90;;;;;;4173344;28;20439;-60
2021/06/23 00:31:16;;;;;;;10.27;5.40;;;22.30;99.90;;;;;;4188509;28;20024;-60
2021/06/23 00:33:22;;;;;;;11.95;6.82;;;22.30;99.90;;;;;;4188826;28;20033;-60
2021/06/23 00:35:24;;;;;;;9.82;5.95;;;22.20;99.90;;;;;;4187457;28;20095;-60
2021/06/23 00:37:25;;;;;;;12.90;6.38;;;22.10;99.90;;;;;;4188904;28;20029;-60
2021/06/23 00:39:26;;;;;;;8.35;6.55;;;22.00;99.90;;;;;;4188410;28;20028;-59
2021/06/23 00:41:27;;;;;;;15.05;7.78;;;22.00;99.90;;;;;;4172954;28;20094;-62
2021/06/23 00:43:28;;;;;;;21.00;11.57;;;21.90;99.90;;;;;;4172184;28;20045;-60
2021/06/23 00:45:30;;;;;;;16.77;9.50;;;21.80;99.90;;;;;;4171869;28;20074;-60
2021/06/23 00:47:31;;;;;;;11.10;7.00;;;21.70;99.90;;;;;;4172178;28;20082;-59
2021/06/23 00:49:33;;;;;;;19.70;11.65;;;21.70;99.90;;;;;;4171239;28;20033;-60
2021/06/23 00:51:35;;;;;;;27.77;15.02;;;21.70;99.90;;;;;;4172874;28;20049;-60
2021/06/23 00:53:36;;;;;;;23.20;14.60;;;21.50;99.90;;;;;;4171204;28;20087;-60
2021/06/23 00:55:38;;;;;;;22.38;13.98;;;21.40;99.90;;;;;;4173245;28;20087;-60
2021/06/23 00:57:40;;;;;;;28.30;14.55;;;21.30;99.90;;;;;;4171538;28;20095;-60
2021/06/23 00:59:41;;;;;;;22.33;13.20;;;21.20;99.90;;;;;;4172947;28;20071;-60
2021/06/23 01:01:43;;;;;;;24.55;13.95;;;21.10;99.90;;;;;;4172017;28;20053;-60
2021/06/23 01:03:45;;;;;;;27.20;15.93;;;21.00;99.90;;;;;;4172386;28;20729;-60
2021/06/23 01:05:46;;;;;;;28.98;14.75;;;20.90;99.90;;;;;;4171370;28;20021;-59
2021/06/23 01:07:48;;;;;;;27.13;14.63;;;20.80;99.90;;;;;;4172300;28;20584;-60
2021/06/23 01:09:51;;;;;;;23.83;12.63;;;20.70;99.90;;;;;;4171458;28;20075;-61
2021/06/23 01:12:23;;;;;;;22.40;12.70;;;20.70;99.90;;;;;;4171952;28;20033;-61
2021/06/23 01:14:25;;;;;;;20.20;12.07;;;20.70;99.90;;;;;;4171364;28;20086;-60
2021/06/23 01:16:29;;;;;;;23.40;11.20;;;20.70;99.90;;;;;;4172259;28;20444;-60
2021/06/23 01:18:34;;;;;;;23.73;11.50;;;20.80;99.90;;;;;;4171589;28;20071;-60
2021/06/23 01:20:44;;;;;;;18.10;10.68;;;20.80;99.90;;;;;;4171821;28;20032;-59
2021/06/23 01:22:46;;;;;;;17.23;10.10;;;20.80;99.90;;;;;;4171539;28;20514;-61
2021/06/23 01:24:47;;;;;;;21.10;10.77;;;20.90;99.90;;;;;;4171985;28;20355;-60
2021/06/23 01:26:48;;;;;;;21.55;10.43;;;20.90;99.90;;;;;;4171919;28;20106;-60
2021/06/23 01:28:49;;;;;;;17.67;8.77;;;21.00;99.90;;;;;;4171909;28;20037;-60
2021/06/23 01:30:53;;;;;;;15.02;9.05;;;21.10;99.90;;;;;;4172858;28;20095;-60
2021/06/23 01:32:54;;;;;;;14.07;7.60;;;21.10;99.90;;;;;;4172967;28;20037;-61
2021/06/23 01:34:55;;;;;;;13.93;7.57;;;21.10;99.90;;;;;;4175085;28;20171;-59
2021/06/23 01:36:57;;;;;;;13.98;7.75;;;21.10;99.90;;;;;;4174422;28;20463;-61
2021/06/23 01:38:58;;;;;;;12.80;8.10;;;21.10;99.90;;;;;;4174486;28;20045;-60
2021/06/23 01:40:59;;;;;;;13.73;8.75;;;21.10;99.90;;;;;;4173663;28;20028;-60
2021/06/23 01:43:00;;;;;;;16.27;8.30;;;21.10;99.90;;;;;;4175854;28;20041;-63
2021/06/23 01:45:02;;;;;;;21.23;9.13;;;21.00;99.90;;;;;;4174287;28;20083;-61
2021/06/23 01:47:04;;;;;;;14.20;8.55;;;21.00;99.90;;;;;;4174986;28;20083;-61
2021/06/23 01:49:05;;;;;;;11.45;8.63;;;21.00;99.90;;;;;;4174661;28;20492;-64
2021/06/23 01:51:06;;;;;;;19.92;9.68;;;21.00;99.90;;;;;;4175015;28;20079;-63
2021/06/23 01:53:07;;;;;;;10.30;6.80;;;20.90;99.90;;;;;;4174586;28;20470;-64
2021/06/23 01:55:26;;;;;;;16.90;7.53;;;20.90;99.90;;;;;;4175025;28;20037;-60
2021/06/23 01:57:29;;;;;;;16.00;7.65;;;20.90;99.90;;;;;;4174520;28;20033;-60
2021/06/23 01:59:30;;;;;;;12.05;8.30;;;20.80;99.90;;;;;;4173489;28;20114;-65
2021/06/23 02:01:51;;;;;;;12.20;6.40;;;20.70;99.90;;;;;;4174826;28;20041;-61
2021/06/23 02:03:55;;;;;;;6.35;5.35;;;20.70;99.90;;;;;;4174695;28;20074;-61
2021/06/23 02:06:14;;;;;;;8.23;6.07;;;20.50;99.90;;;;;;4174514;28;20102;-63
2021/06/23 02:08:39;;;;;;;12.32;6.70;;;20.30;99.90;;;;;;4173845;28;20041;-63
2021/06/23 02:10:54;;;;;;;9.55;5.38;;;20.10;99.90;;;;;;4174010;28;20382;-63
2021/06/23 02:13:22;;;;;;;9.70;6.32;;;20.00;99.90;;;;;;4174392;28;20041;-60
2021/06/23 02:15:25;;;;;;;8.93;6.90;;;20.00;99.90;;;;;;4162395;28;20037;-60
2021/06/23 02:17:29;;;;;;;18.08;9.65;;;20.00;99.90;;;;;;4174871;28;20045;-59
2021/06/23 02:19:31;;;;;;;20.50;10.95;;;20.10;99.90;;;;;;4173731;28;20087;-63
2021/06/23 02:21:38;;;;;;;15.95;9.35;;;20.10;99.90;;;;;;4174323;28;20098;-64
2021/06/23 02:23:42;;;;;;;15.35;7.95;;;20.10;99.90;;;;;;4173319;28;20048;-61
2021/06/23 02:25:43;;;;;;;13.93;8.40;;;20.10;99.90;;;;;;4174242;28;20037;-60
2021/06/23 02:27:46;;;;;;;15.18;9.15;;;20.10;99.90;;;;;;4173671;28;20057;-61
2021/06/23 02:29:48;;;;;;;19.63;10.27;;;20.10;99.90;;;;;;4173957;28;20033;-60
2021/06/23 02:31:51;;;;;;;12.43;9.70;;;20.00;99.90;;;;;;4174254;28;20041;-61
2021/06/23 02:33:54;;;;;;;21.02;10.88;;;20.00;99.90;;;;;;4173736;28;20017;-58
2021/06/23 02:35:56;;;;;;;13.85;9.02;;;19.90;99.90;;;;;;4174360;28;20870;-61
2021/06/23 02:37:58;;;;;;;11.75;8.70;;;19.90;99.90;;;;;;4173299;28;20029;-60
2021/06/23 02:40:00;;;;;;;16.38;8.60;;;20.00;99.90;;;;;;4174023;28;20021;-61
2021/06/23 02:42:02;;;;;;;10.15;7.63;;;20.00;99.90;;;;;;4171816;28;20045;-61
2021/06/23 02:44:04;;;;;;;16.40;9.20;;;20.10;99.90;;;;;;4173881;28;20507;-61
2021/06/23 02:46:05;;;;;;;13.60;9.32;;;20.20;99.90;;;;;;4173194;28;20037;-62
2021/06/23 02:48:07;;;;;;;14.68;9.45;;;20.30;99.90;;;;;;4173873;28;20056;-61
2021/06/23 02:50:09;;;;;;;15.77;9.23;;;20.30;99.90;;;;;;4171675;28;20037;-59
2021/06/23 02:52:11;;;;;;;17.25;9.00;;;20.40;99.90;;;;;;4173967;28;20575;-60
2021/06/23 02:54:13;;;;;;;15.63;8.35;;;20.40;99.90;;;;;;4172966;28;20071;-61
2021/06/23 02:56:16;;;;;;;22.08;15.93;;;20.50;99.90;;;;;;4173799;28;20071;-61
2021/06/23 02:58:19;;;;;;;31.17;20.60;;;20.50;99.90;;;;;;4173000;28;20075;-60
2021/06/23 03:00:21;;;;;;;22.05;14.13;;;20.50;99.90;;;;;;4173879;28;20045;-61
2021/06/23 03:02:22;;;;;;;18.50;10.35;;;20.50;99.90;;;;;;4173238;28;20029;-60
2021/06/23 03:04:23;;;;;;;19.15;10.60;;;20.50;99.90;;;;;;4174018;28;20122;-61
2021/06/23 03:06:24;;;;;;;22.40;10.10;;;20.50;99.90;;;;;;4173521;28;20033;-61
2021/06/23 03:08:26;;;;;;;14.20;9.32;;;20.60;99.90;;;;;;4172676;28;20075;-61
2021/06/23 03:10:27;;;;;;;26.63;11.18;;;20.80;99.90;;;;;;4173334;28;20036;-60
2021/06/23 03:12:29;;;;;;;19.40;11.55;;;21.00;99.90;;;;;;4172914;28;20041;-63
2021/06/23 03:14:30;;;;;;;18.48;10.20;;;21.20;99.90;;;;;;4173723;28;20082;-61
2021/06/23 03:16:31;;;;;;;17.65;9.00;;;21.40;99.90;;;;;;4172786;28;20025;-60
2021/06/23 03:18:33;;;;;;;19.13;10.13;;;21.70;99.90;;;;;;4173371;28;20025;-62
2021/06/23 03:20:35;;;;;;;20.15;10.27;;;21.80;99.90;;;;;;4172366;28;20087;-58
2021/06/23 03:22:36;;;;;;;15.95;9.25;;;22.10;99.90;;;;;;4173333;28;20500;-61
2021/06/23 03:24:38;;;;;;;18.95;8.65;;;22.40;99.90;;;;;;4172551;28;20139;-61
2021/06/23 03:26:39;;;;;;;12.32;7.47;;;22.60;99.90;;;;;;4173386;28;20051;-62
2021/06/23 03:28:41;;;;;;;12.35;7.53;;;22.90;99.90;;;;;;4172751;28;20041;-60
2021/06/23 03:30:42;;;;;;;11.50;7.53;;;23.20;99.90;;;;;;4172974;28;20033;-60
2021/06/23 03:32:44;;;;;;;13.18;6.18;;;23.50;99.90;;;;;;4172448;28;20037;-60
2021/06/23 03:34:45;;;;;;;10.10;5.90;;;23.80;99.90;;;;;;4173332;28;20094;-60
2021/06/23 03:36:46;;;;;;;13.60;5.88;;;24.20;99.90;;;;;;4172530;28;20037;-61
2021/06/23 03:38:47;;;;;;;13.70;5.20;;;24.40;99.90;;;;;;4172430;28;20079;-63
2021/06/23 03:40:49;;;;;;;9.77;6.00;;;24.60;99.90;;;;;;4173425;28;20083;-61
2021/06/23 03:42:50;;;;;;;10.60;6.18;;;25.00;99.90;;;;;;4172646;28;20079;-61
2021/06/23 03:44:51;;;;;;;10.98;5.53;;;25.20;99.90;;;;;;4173244;28;20020;-60
2021/06/23 03:46:55;;;;;;;9.02;5.10;;;25.60;99.90;;;;;;4172605;28;20032;-60
2021/06/23 03:48:57;;;;;;;19.42;6.97;;;25.90;99.90;;;;;;4173052;28;20071;-61
2021/06/23 03:50:58;;;;;;;10.82;5.55;;;26.20;99.90;;;;;;4172111;28;20025;-62
2021/06/23 03:53:00;;;;;;;9.00;4.97;;;26.30;99.90;;;;;;4173152;28;20041;-60
2021/06/23 03:55:01;;;;;;;12.02;5.20;;;26.50;99.90;;;;;;4169728;28;20097;-60
2021/06/23 03:57:03;;;;;;;12.10;4.50;;;26.80;99.90;;;;;;4173142;28;20095;-60
2021/06/23 03:59:04;;;;;;;10.73;5.38;;;27.20;99.90;;;;;;4171895;28;20029;-60
2021/06/23 04:01:05;;;;;;;12.02;4.60;;;27.50;99.90;;;;;;4194656;28;20040;-60
2021/06/23 04:03:06;;;;;;;14.32;5.50;;;27.70;99.90;;;;;;4158720;28;21195;-59
2021/06/23 04:05:09;;;;;;;8.15;4.70;;;27.90;99.90;;;;;;4172085;28;20093;-59
2021/06/23 04:07:10;;;;;;;9.77;4.50;;;28.30;99.90;;;;;;4171383;28;20126;-60
2021/06/23 04:09:11;;;;;;;12.25;4.78;;;28.60;99.90;;;;;;4171422;28;20044;-59
2021/06/23 04:11:12;;;;;;;15.88;4.63;;;28.90;99.90;;;;;;4171982;28;20044;-60
2021/06/23 04:13:13;;;;;;;10.48;4.07;;;29.00;99.90;;;;;;4171498;28;20041;-60
2021/06/23 04:15:15;;;;;;;9.95;4.82;;;29.30;99.90;;;;;;4172110;28;20040;-61
2021/06/23 04:17:16;;;;;;;16.55;5.90;;;29.60;99.90;;;;;;4171100;28;20025;-62
2021/06/23 04:19:17;;;;;;;8.00;5.50;;;29.80;99.90;;;;;;4171771;28;20035;-62
2021/06/23 04:21:19;;;;;;;13.75;6.18;;;29.80;99.90;;;;;;4171512;28;20041;-62
2021/06/23 04:23:20;;;;;;;9.73;5.18;;;29.80;99.90;;;;;;4172218;28;20025;-62
2021/06/23 04:25:21;;;;;;;12.02;4.45;;;30.20;99.90;;;;;;4171926;28;20079;-60
2021/06/23 04:27:23;;;;;;;16.38;5.25;;;30.70;99.50;;;;;;4171809;28;20040;-61
2021/06/23 04:29:24;;;;;;;17.55;4.63;;;31.00;98.60;;;;;;4171549;28;20033;-61
2021/06/23 04:31:25;;;;;;;8.63;3.90;;;31.40;97.80;;;;;;4172273;28;20033;-62
2021/06/23 04:33:28;;;;;;;13.77;4.50;;;31.60;96.80;;;;;;4171470;28;20055;-61
2021/06/23 04:35:29;;;;;;;9.68;3.90;;;31.70;96.10;;;;;;4172230;28;20434;-61
2021/06/23 04:37:30;;;;;;;9.25;3.97;;;31.90;95.40;;;;;;4171630;28;20107;-61
2021/06/23 04:39:32;;;;;;;12.10;4.13;;;31.70;94.80;;;;;;4171760;28;20412;-62
2021/06/23 04:41:33;;;;;;;18.52;3.97;;;31.70;94.40;;;;;;4171721;28;20522;-61
2021/06/23 04:43:34;;;;;;;9.40;3.60;;;31.70;94.20;;;;;;4171644;28;20087;-61
2021/06/23 04:45:35;;;;;;;14.18;4.25;;;31.90;93.90;;;;;;4172232;28;20459;-59
2021/06/23 04:47:37;;;;;;;9.68;4.97;;;32.30;93.60;;;;;;4170930;28;20086;-61
2021/06/23 04:49:39;;;;;;;9.07;3.80;;;32.60;92.70;;;;;;4172292;28;20045;-61
2021/06/23 04:51:40;;;;;;;11.80;4.30;;;32.40;92.00;;;;;;4171304;28;20033;-59
2021/06/23 04:53:41;;;;;;;10.95;4.00;;;32.20;92.00;;;;;;4171754;28;20079;-59
2021/06/23 04:55:42;;;;;;;9.65;3.63;;;32.20;91.80;;;;;;4171109;28;20508;-59
2021/06/23 04:57:44;;;;;;;8.40;4.25;;;32.50;91.60;;;;;;4172702;28;20037;-60
2021/06/23 04:59:45;;;;;;;18.40;4.15;;;32.80;90.90;;;;;;4171353;28;20748;-60
2021/06/23 05:01:46;;;;;;;15.68;3.55;;;33.30;90.20;;;;;;4171965;28;20047;-60
2021/06/23 05:03:48;;;;;;;14.57;6.95;;;33.50;88.70;;;;;;4170991;28;20105;-60
2021/06/23 05:05:49;;;;;;;11.40;7.18;;;32.80;88.60;;;;;;4173376;28;20021;-59
2021/06/23 05:07:54;;;;;;;13.25;7.72;;;31.00;90.80;;;;;;4174568;28;20778;-59
2021/06/23 05:09:55;;;;;;;17.00;7.85;;;29.60;92.80;;;;;;4174837;28;20459;-60
2021/06/23 05:11:57;;;;;;;15.27;8.68;;;28.60;94.40;;;;;;4173604;28;20040;-59
2021/06/23 05:13:59;;;;;;;20.60;9.77;;;28.00;95.70;;;;;;4174165;28;20029;-60
2021/06/23 05:16:01;;;;;;;25.75;9.60;;;27.70;96.80;;;;;;4174281;28;20094;-60
2021/06/23 05:18:03;;;;;;;17.35;8.70;;;27.60;97.50;;;;;;4174963;28;20040;-62
2021/06/23 05:20:05;;;;;;;23.92;8.32;;;27.70;98.00;;;;;;4174584;28;20084;-62
2021/06/23 05:22:11;;;;;;;13.05;7.97;;;27.50;98.20;;;;;;4172724;28;20057;-61
2021/06/23 05:24:12;;;;;;;19.15;9.25;;;27.60;98.70;;;;;;4173107;28;20091;-60
2021/06/23 05:26:13;;;;;;;26.80;9.52;;;27.60;98.90;;;;;;4171873;28;20135;-61
2021/06/23 05:28:15;;;;;;;21.30;8.88;;;27.50;99.10;;;;;;4174783;28;20095;-60
2021/06/23 05:30:17;;;;;;;15.38;8.43;;;27.80;99.60;;;;;;4173735;28;20025;-59
2021/06/23 05:32:18;;;;;;;21.00;8.65;;;28.30;99.00;;;;;;4172047;28;20025;-59
2021/06/23 05:34:19;;;;;;;24.80;8.68;;;28.80;98.50;;;;;;4173780;28;20067;-59
2021/06/23 05:36:20;;;;;;;22.60;7.40;;;29.10;97.90;;;;;;4174320;28;20048;-59
2021/06/23 05:38:21;;;;;;;25.17;8.38;;;29.50;97.40;;;;;;4172755;28;20037;-62
2021/06/23 05:40:23;;;;;;;35.63;8.60;;;29.60;97.10;;;;;;4174548;28;20086;-60
2021/06/23 05:42:24;;;;;;;23.83;6.97;;;30.10;96.80;;;;;;4174027;28;20094;-60
2021/06/23 05:44:25;;;;;;;22.63;7.38;;;30.70;96.00;;;;;;4174646;28;20025;-61
2021/06/23 05:46:27;;;;;;;28.25;7.50;;;30.60;95.40;;;;;;4186940;28;20098;-61
2021/06/23 05:48:28;;;;;;;15.00;6.93;;;30.40;95.50;;;;;;4173536;28;20040;-61
2021/06/23 05:50:30;;;;;;;22.48;7.35;;;30.20;95.70;;;;;;4174177;28;20028;-60
2021/06/23 05:52:31;;;;;;;21.65;7.45;;;30.20;95.70;;;;;;4173762;28;20037;-59
2021/06/23 05:54:33;;;;;;;15.05;5.68;;;30.60;95.20;;;;;;4174564;28;20029;-60
2021/06/23 05:56:34;;;;;;;20.60;6.20;;;30.30;95.00;;;;;;4173291;28;20033;-61
2021/06/23 05:58:35;;;;;;;15.48;5.50;;;30.80;94.80;;;;;;4174648;28;20114;-59
2021/06/23 06:00:36;;;;;;;17.42;5.03;;;31.10;94.00;;;;;;4172809;28;20610;-60
2021/06/23 06:02:37;;;;;;;21.42;5.28;;;31.50;93.60;;;;;;4174653;28;20060;-60
2021/06/23 06:04:38;;;;;;;21.25;5.18;;;32.00;92.60;;;;;;4172652;28;21134;-60
2021/06/23 06:06:40;;;;;;;16.15;5.20;;;32.10;92.10;;;;;;4174149;28;20037;-60
2021/06/23 06:08:41;;;;;;;15.07;4.97;;;32.30;91.60;;;;;;4173322;28;20432;-59
2021/06/23 06:10:42;;;;;;;21.65;5.28;;;32.10;91.10;;;;;;4174906;28;20040;-61
2021/06/23 06:12:43;;;;;;;22.83;5.88;;;32.20;90.80;;;;;;4173111;28;20041;-59
2021/06/23 06:14:45;;;;;;;18.05;6.32;;;31.90;90.90;;;;;;4173966;28;20459;-60
2021/06/23 06:16:46;;;;;;;14.52;6.97;;;31.80;91.10;;;;;;4172415;28;20033;-60
2021/06/23 06:18:48;;;;;;;20.50;7.63;;;31.40;91.40;;;;;;4172910;28;20033;-60
2021/06/23 06:20:49;;;;;;;22.23;8.40;;;31.10;92.00;;;;;;4173521;28;20044;-59
2021/06/23 06:22:50;;;;;;;15.98;7.55;;;30.50;92.70;;;;;;4172777;28;20086;-57
2021/06/23 06:24:51;;;;;;;20.55;8.57;;;29.90;93.30;;;;;;4173908;28;20083;-60
2021/06/23 06:26:52;;;;;;;21.58;7.82;;;29.30;94.10;;;;;;4172911;28;20041;-60
2021/06/23 06:28:53;;;;;;;17.42;7.82;;;29.00;94.90;;;;;;4173472;28;20041;-60
2021/06/23 06:30:55;;;;;;;23.52;9.05;;;28.80;95.40;;;;;;4172090;28;20861;-60
2021/06/23 06:32:56;;;;;;;27.55;8.10;;;28.50;96.00;;;;;;4173707;28;20493;-59
2021/06/23 06:34:57;;;;;;;21.55;7.68;;;28.00;96.50;;;;;;4172584;28;20021;-60
2021/06/23 06:36:58;;;;;;;22.70;7.65;;;27.90;97.00;;;;;;4189177;28;20060;-59
2021/06/23 06:38:59;;;;;;;15.70;7.63;;;27.80;97.40;;;;;;4173214;28;20707;-60
2021/06/23 06:41:02;;;;;;;18.15;7.15;;;27.70;97.60;;;;;;4172708;28;20140;-60
2021/06/23 06:43:04;;;;;;;17.50;7.40;;;27.80;97.70;;;;;;4172238;28;20037;-59
2021/06/23 06:45:06;;;;;;;14.52;7.07;;;27.70;97.90;;;;;;4173680;28;20086;-59
2021/06/23 06:47:07;;;;;;;15.52;6.82;;;27.40;98.30;;;;;;4173169;28;20054;-60
2021/06/23 06:49:08;;;;;;;20.98;6.55;;;27.30;98.80;;;;;;4172743;28;20037;-61
2021/06/23 06:51:10;;;;;;;22.40;8.43;;;27.30;99.20;;;;;;4172786;28;20033;-61
2021/06/23 06:53:11;;;;;;;18.38;7.25;;;27.30;99.00;;;;;;4173173;28;20432;-60
2021/06/23 06:55:20;;;;;;;17.15;7.15;;;27.40;99.10;;;;;;4173656;28;20541;-59
2021/06/23 06:57:21;;;;;;;14.85;6.97;;;27.30;99.40;;;;;;4173159;28;20912;-61
2021/06/23 06:59:24;;;;;;;15.63;6.10;;;27.40;99.60;;;;;;4173307;28;20825;-60
2021/06/23 07:01:25;;;;;;;31.17;6.80;;;27.50;99.40;;;;;;4173452;28;20386;-59
2021/06/23 07:03:27;;;;;;;21.63;7.50;;;27.70;99.50;;;;;;4173505;28;20539;-60
2021/06/23 07:05:28;;;;;;;17.85;6.97;;;28.00;99.50;;;;;;4172638;28;20033;-60
2021/06/23 07:07:29;;;;;;;26.50;7.15;;;27.80;99.70;;;;;;4175757;28;20036;-59
2021/06/23 07:09:30;;;;;;;16.80;6.90;;;27.70;99.90;;;;;;4171108;28;20049;-60
2021/06/23 07:11:31;;;;;;;20.90;6.45;;;27.70;99.90;;;;;;4173895;28;20094;-61
2021/06/23 07:13:32;;;;;;;15.88;6.30;;;27.70;99.90;;;;;;4171144;28;20051;-60
2021/06/23 07:15:35;;;;;;;16.27;6.93;;;28.00;99.90;;;;;;4173182;28;20076;-60
2021/06/23 07:17:36;;;;;;;16.70;6.95;;;27.90;99.90;;;;;;4172698;28;20049;-60
2021/06/23 07:19:37;;;;;;;13.95;7.15;;;28.00;99.90;;;;;;4172982;28;20079;-60
2021/06/23 07:21:39;;;;;;;22.05;7.80;;;28.00;99.90;;;;;;4171524;28;20470;-62
2021/06/23 07:23:40;;;;;;;18.58;7.05;;;28.00;99.90;;;;;;4173143;28;20440;-60
2021/06/23 07:25:41;;;;;;;19.17;7.57;;;28.20;99.90;;;;;;4174420;28;20473;-61
2021/06/23 07:27:42;;;;;;;14.00;7.10;;;28.30;99.90;;;;;;4173102;28;20037;-60
2021/06/23 07:29:43;;;;;;;15.35;7.70;;;28.40;99.90;;;;;;4173291;28;20033;-60
2021/06/23 07:32:05;;;;;;;17.48;6.90;;;28.60;99.90;;;;;;4172840;28;20497;-60
2021/06/23 07:38:29;;;;;;;18.15;7.32;;;29.40;99.70;;;;;;4173233;28;20106;-60
2021/06/23 07:41:06;;;;;;;14.88;6.45;;;29.30;99.60;;;;;;4172778;28;20094;-60
2021/06/23 07:42:57;;;;;;;11.38;6.03;;;29.50;99.70;;;;;;4156195;28;20045;-60
2021/06/23 07:45:01;;;;;;;15.48;5.63;;;29.70;99.50;;;;;;4156368;28;20366;-60
2021/06/23 07:47:06;;;;;;;14.00;6.07;;;30.00;99.40;;;;;;4156993;28;20033;-60
2021/06/23 07:49:09;;;;;;;20.38;5.93;;;30.50;99.00;;;;;;4156219;28;20037;-60
2021/06/23 07:51:13;;;;;;;15.73;6.45;;;30.80;98.40;;;;;;4172229;28;20044;-60
2021/06/23 08:11:29;;;;;;;17.83;5.57;;;30.00;98.20;;;;;;4171957;28;20033;-60
2021/06/23 08:13:30;;;;;;;11.77;6.03;;;30.00;98.10;;;;;;4172188;28;20094;-60
2021/06/23 08:15:37;;;;;;;19.42;5.45;;;30.20;98.20;;;;;;4172462;28;20096;-60
2021/06/23 08:17:38;;;;;;;14.35;5.70;;;30.50;97.90;;;;;;4172524;28;20067;-60
2021/06/23 08:19:40;;;;;;;18.45;5.95;;;30.80;97.50;;;;;;4172353;28;20095;-60
2021/06/23 08:21:41;;;;;;;15.65;5.43;;;30.80;97.20;;;;;;4172833;28;20037;-60
2021/06/23 08:23:42;;;;;;;15.38;5.53;;;30.80;97.20;;;;;;4172205;28;20090;-60
2021/06/23 08:25:43;;;;;;;21.63;5.57;;;30.70;97.30;;;;;;4173071;28;20067;-60
2021/06/23 08:27:44;;;;;;;12.85;4.97;;;30.90;97.00;;;;;;4171789;28;21294;-60
2021/06/23 08:29:46;;;;;;;16.90;6.53;;;30.60;96.90;;;;;;4172801;28;20118;-60
2021/06/23 08:31:47;;;;;;;15.18;5.95;;;30.50;96.60;;;;;;4171726;28;20101;-61
2021/06/23 08:33:48;;;;;;;11.98;5.60;;;30.60;96.60;;;;;;4172975;28;20033;-60
2021/06/23 08:35:49;;;;;;;18.88;5.47;;;30.70;96.50;;;;;;4171879;28;20118;-60
2021/06/23 08:37:50;;;;;;;14.75;5.63;;;30.50;96.30;;;;;;4172071;28;20094;-60
2021/06/23 08:39:51;;;;;;;14.77;5.15;;;30.20;96.50;;;;;;4170705;28;20029;-60
2021/06/23 08:41:54;;;;;;;20.70;6.40;;;30.10;96.60;;;;;;4175847;28;20029;-61
2021/06/23 08:43:56;;;;;;;11.77;4.88;;;30.20;96.50;;;;;;4175766;28;20114;-61
2021/06/23 08:46:00;;;;;;;14.00;5.97;;;30.20;96.30;;;;;;4176103;28;20040;-61
2021/06/23 08:48:02;;;;;;;19.02;5.00;;;30.20;96.30;;;;;;4159176;28;20111;-60
2021/06/23 08:50:04;;;;;;;17.73;5.32;;;30.20;96.30;;;;;;4158513;28;20470;-60
2021/06/23 08:52:06;;;;;;;15.95;5.18;;;30.20;96.40;;;;;;4158623;28;20146;-60
2021/06/23 08:54:09;;;;;;;17.45;6.15;;;30.30;96.40;;;;;;4158832;28;20054;-61
2021/06/23 08:56:10;;;;;;;20.45;5.55;;;30.50;96.20;;;;;;4160042;28;20179;-61
2021/06/23 08:58:11;;;;;;;20.35;4.95;;;30.60;95.80;;;;;;4158285;28;20533;-60
2021/06/23 09:00:13;;;;;;;12.05;4.53;;;30.70;95.50;;;;;;4190652;28;20098;-61
2021/06/23 09:02:16;;;;;;;17.88;4.82;;;30.90;95.40;;;;;;4157757;28;20041;-60
2021/06/23 09:04:18;;;;;;;17.15;5.28;;;30.90;95.10;;;;;;4159891;28;20363;-60
2021/06/23 09:06:49;;;;;;;14.95;5.35;;;30.80;95.10;;;;;;4163839;28;20033;-60
2021/06/23 09:08:50;;;;;;;17.80;5.70;;;30.50;95.20;;;;;;4174207;28;20091;-60
2021/06/23 09:10:51;;;;;;;10.25;5.30;;;30.50;95.50;;;;;;4173863;28;20021;-61
2021/06/23 09:13:07;;;;;;;16.10;4.88;;;30.50;95.50;;;;;;4174955;28;20053;-61
2021/06/23 09:15:09;;;;;;;23.73;6.88;;;30.40;95.60;;;;;;4175177;28;20049;-60
2021/06/23 09:17:13;;;;;;;13.40;5.35;;;30.50;95.50;;;;;;4176349;28;20037;-61
2021/06/23 09:19:28;;;;;;;11.20;4.85;;;30.60;95.40;;;;;;4174916;28;20025;-60
2021/06/23 09:21:30;;;;;;;14.57;5.25;;;30.70;95.30;;;;;;4175672;28;20029;-61
2021/06/23 09:23:40;;;;;;;15.85;5.75;;;30.70;95.30;;;;;;4174290;28;20086;-60
2021/06/23 09:25:45;;;;;;;20.50;5.88;;;30.80;95.00;;;;;;4176429;28;20048;-61
2021/06/23 09:27:52;;;;;;;19.55;5.32;;;30.70;95.10;;;;;;4174517;28;20025;-61
2021/06/23 09:29:53;;;;;;;16.13;6.10;;;30.70;95.00;;;;;;4175257;28;20703;-60
2021/06/23 09:31:57;;;;;;;10.27;5.15;;;30.70;95.00;;;;;;4174282;28;20025;-59
2021/06/23 09:34:19;;;;;;;18.88;5.57;;;30.90;94.70;;;;;;4173741;28;20057;-60
2021/06/23 09:36:29;;;;;;;12.43;5.05;;;30.90;94.40;;;;;;4174206;28;20037;-60
2021/06/23 09:38:37;;;;;;;25.20;5.90;;;30.90;94.60;;;;;;4175235;28;20452;-60
2021/06/23 09:40:42;;;;;;;16.00;5.75;;;31.00;94.70;;;;;;4173700;28;20041;-60
2021/06/23 09:42:45;;;;;;;14.85;4.97;;;31.20;94.50;;;;;;4174593;28;20057;-59
2021/06/23 09:44:46;;;;;;;14.73;5.70;;;31.30;94.60;;;;;;4173523;28;20025;-60
2021/06/23 09:46:49;;;;;;;24.70;6.90;;;31.20;94.30;;;;;;4174655;28;20079;-60
2021/06/23 09:49:05;;;;;;;23.13;5.53;;;31.10;94.30;;;;;;4173909;28;20021;-59
2021/06/23 09:51:11;;;;;;;17.90;5.57;;;31.00;94.10;;;;;;4174765;28;20044;-60
2021/06/23 09:53:13;;;;;;;18.10;5.20;;;31.10;93.90;;;;;;4173939;28;20040;-60
2021/06/23 09:55:17;;;;;;;13.15;4.50;;;31.00;93.40;;;;;;4175044;28;20067;-61
2021/06/23 09:57:18;;;;;;;14.70;4.82;;;31.00;93.30;;;;;;4173792;28;20045;-60
2021/06/23 09:59:56;;;;;;;16.80;4.35;;;31.20;93.10;;;;;;4174307;28;20025;-60
2021/06/23 10:01:57;;;;;;;18.00;5.07;;;31.20;93.00;;;;;;4157732;28;20045;-60
2021/06/23 10:04:08;;;;;;;14.80;4.40;;;31.30;92.80;;;;;;4158455;28;20482;-60
2021/06/23 10:06:27;;;;;;;18.38;4.88;;;31.40;91.90;;;;;;4157633;28;20025;-60
2021/06/23 10:08:28;;;;;;;19.15;4.95;;;31.50;91.20;;;;;;4171651;28;20444;-60
2021/06/23 10:10:44;;;;;;;15.52;4.18;;;31.30;91.70;;;;;;4174486;28;20321;-60
2021/06/23 10:12:50;;;;;;;12.73;4.30;;;31.20;91.50;;;;;;4174233;28;20068;-60
2021/06/23 10:14:52;;;;;;;11.02;3.78;;;31.20;91.80;;;;;;4173506;28;20025;-61
2021/06/23 10:16:53;;;;;;;19.48;4.28;;;31.00;91.60;;;;;;4173021;28;20044;-60
2021/06/23 10:18:55;;;;;;;14.35;3.97;;;31.00;91.70;;;;;;4173378;28;20040;-59
2021/06/23 10:20:57;;;;;;;17.58;3.50;;;31.00;91.70;;;;;;4176093;28;20047;-60
2021/06/23 10:22:58;;;;;;;17.45;4.80;;;31.00;91.00;;;;;;4174700;28;20420;-60
2021/06/23 10:25:04;;;;;;;18.58;4.13;;;31.00;90.80;;;;;;4171685;28;20643;-61
2021/06/23 10:27:08;;;;;;;15.32;4.88;;;31.10;90.60;;;;;;4174050;28;20013;-63
2021/06/23 10:29:12;;;;;;;15.07;3.90;;;31.10;90.70;;;;;;4172704;28;20082;-60
2021/06/23 10:31:14;;;;;;;13.73;5.35;;;31.30;90.40;;;;;;4174380;28;20098;-60
2021/06/23 10:33:16;;;;;;;20.73;3.78;;;31.50;90.30;;;;;;4173023;28;20032;-61
2021/06/23 10:35:17;;;;;;;17.63;4.00;;;31.70;89.80;;;;;;4174036;28;20102;-60
2021/06/23 10:37:22;;;;;;;15.35;4.00;;;32.00;88.90;;;;;;4173352;28;20090;-60
2021/06/23 10:39:34;;;;;;;21.75;5.30;;;32.30;87.80;;;;;;4173814;28;20041;-60
2021/06/23 10:41:38;;;;;;;15.23;3.90;;;32.30;87.40;;;;;;4173354;28;20102;-60
2021/06/23 10:43:40;;;;;;;18.42;4.22;;;32.20;87.20;;;;;;4173919;28;20112;-62
2021/06/23 10:45:46;;;;;;;17.33;4.00;;;32.20;87.00;;;;;;4173054;28;20568;-60
2021/06/23 10:47:48;;;;;;;15.88;3.92;;;32.20;86.40;;;;;;4173952;28;20096;-60
2021/06/23 10:49:50;;;;;;;18.00;4.60;;;32.10;87.00;;;;;;4172324;28;20053;-60
2021/06/23 10:51:52;;;;;;;16.73;4.03;;;32.00;86.20;;;;;;4174822;28;20025;-60
2021/06/23 10:53:53;;;;;;;16.90;3.78;;;32.00;86.60;;;;;;4173465;28;20103;-61
2021/06/23 10:55:55;;;;;;;17.00;4.20;;;32.10;86.60;;;;;;4174359;28;20095;-60